• Join FlightAware (Why Join?)
  • Login
  • US Flag 
03:15AM EDT


 

Airport Tracker/Info


-or-


 

Live Flight TrackerFlight Track Log ✈ N147SW ✈ 13-Jun-2014 ✈ KSDL - KPIE

Flight Track Log - Related Links

Times and Time Zones

All times are in EDT time to prevent confusion due to time zone crossing. See the N147SW flight status page for this flight to view local times or setup timezone preferences in your user account.

Time Position Orientation Groundspeed Altitude Reporting Facility
EDT Latitude Longitude Course Direction KTS MPH feet Rate Location/Type
01:42PM 33.6167 -111.9167 301° West 164 189 2,100  Level Phoenix TRACON
01:43PM 33.6500 -111.9833 301° West 259 298 5,400 2,160 Climbing Phoenix TRACON
01:44PM 33.7011 -111.9494 29° Northeast 247 284 7,500 1,620 Climbing Albuquerque Center
01:45PM 33.6906 -111.8531 97° East 297 342 8,900 1,920 Climbing Albuquerque Center
01:46PM 33.6758 -111.7361 99° East 298 343 11,500 2,340 Climbing Albuquerque Center
01:47PM 33.6281 -111.6481 123° Southeast 317 365 13,800 2,160 Climbing Albuquerque Center
01:48PM 33.5778 -111.5558 123° Southeast 327 376 16,000 2,100 Climbing Albuquerque Center
01:49PM 33.5228 -111.4603 125° Southeast 344 396 18,200 1,800 Climbing Albuquerque Center
01:50PM 33.4636 -111.3625 126° Southeast 359 413 19,800 1,740 Climbing Albuquerque Center
01:51PM 33.3944 -111.2358 123° Southeast 382 440 21,900 1,800 Climbing Albuquerque Center
01:52PM 33.3594 -111.1125 109° East 393 452 23,600 1,500 Climbing Albuquerque Center
01:53PM 33.3239 -110.9894 109° East 392 451 25,100 1,560 Climbing Albuquerque Center
01:55PM 33.2872 -110.8669 110° East 394 453 26,900 1,440 Climbing Albuquerque Center
01:56PM 33.2494 -110.7417 110° East 396 456 28,200 1,380 Climbing Albuquerque Center
01:57PM 33.2047 -110.5922 110° East 408 470 29,800 1,380 Climbing Albuquerque Center
01:58PM 33.1647 -110.4606 110° East 419 482 31,100 1,140 Climbing Albuquerque Center
01:59PM 33.1250 -110.3283 110° East 421 484 32,200 780 Climbing Albuquerque Center
02:00PM 33.0825 -110.1919 110° East 433 498 32,800 1,020 Climbing Albuquerque Center
02:01PM 33.0408 -110.0544 110° East 439 505 34,400 1,500 Climbing Albuquerque Center
02:02PM 32.9919 -109.8950 110° East 433 498 35,900 1,200 Climbing Albuquerque Center
02:03PM 32.9511 -109.7622 110° East 429 494 37,000 960 Climbing Albuquerque Center
02:04PM 32.9094 -109.6269 110° East 430 495 38,000 900 Climbing Albuquerque Center
02:05PM 32.8664 -109.4922 111° Southeast 434 499 38,900 720 Climbing Albuquerque Center
02:06PM 32.8228 -109.3558 111° Southeast 442 509 39,600 660 Climbing Albuquerque Center
02:07PM 32.7800 -109.2186 110° East 446 513 40,300 660 Climbing Albuquerque Center
02:08PM 32.7308 -109.0633 111° Southeast 447 514 41,000 300 Climbing Albuquerque Center
02:09PM 32.6839 -108.9139 110° East 462 532 41,000  Level Albuquerque Center
02:10PM 32.6372 -108.7692 111° Southeast 471 542 41,000  Level Albuquerque Center
02:11PM 32.5908 -108.6225 111° Southeast 475 547 41,000  Level Albuquerque Center
02:12PM 32.5342 -108.4431 110° East 483 556 41,000  Level Albuquerque Center
02:13PM 32.4836 -108.2931 112° Southeast 488 562 41,000  Level Albuquerque Center
02:14PM 32.4378 -108.1450 110° East 489 563 41,000  Level Albuquerque Center
02:15PM 32.3886 -107.9944 111° Southeast 490 564 41,000  Level Albuquerque Center
02:16PM 32.3392 -107.8433 111° Southeast 493 567 41,000  Level Albuquerque Center
02:17PM 32.2792 -107.6614 111° Southeast 495 570 41,000  Level Albuquerque Center
02:18PM 32.2303 -107.5108 111° Southeast 495 570 41,000  Level Albuquerque Center
02:19PM 32.1767 -107.3528 112° Southeast 495 570 41,000  Level Albuquerque Center
02:20PM 32.1303 -107.2097 111° Southeast 500 575 41,000  Level Albuquerque Center
02:21PM 32.0808 -107.0597 111° Southeast 500 575 41,000  Level Albuquerque Center
02:22PM 32.0500 -106.8706 101° East 499 574 41,000  Level Albuquerque Center
02:23PM 32.0333 -106.7103 97° East 496 571 41,000  Level Albuquerque Center
02:24PM 32.0164 -106.5481 97° East 499 574 41,000  Level Albuquerque Center
02:25PM 31.9997 -106.3833 97° East 503 579 41,000  Level Albuquerque Center
02:27PM 31.9817 -106.2167 97° East 513 590 41,000  Level Albuquerque Center
02:28PM 31.9592 -106.0175 98° East 514 592 41,000  Level Albuquerque Center
02:29PM 31.9386 -105.8439 98° East 513 590 41,000  Level Albuquerque Center
02:30PM 31.9194 -105.6775 98° East 513 590 41,000  Level Albuquerque Center
02:31PM 31.8983 -105.4981 98° East 513 590 41,000  Level Albuquerque Center
02:32PM 31.8794 -105.3325 98° East 513 590 41,000  Level Albuquerque Center
02:33PM 31.8622 -105.1825 98° East 510 587 41,000  Level Albuquerque Center
02:34PM 31.8419 -105.0153 98° East 513 590 41,000  Level Albuquerque Center
02:35PM 31.8178 -104.8158 98° East 515 593 41,000  Level Albuquerque Center
02:36PM 31.8042 -104.6483 95° East 515 593 41,000  Level Albuquerque Center
02:37PM 31.7839 -104.4814 98° East 515 593 41,000  Level Albuquerque Center
02:38PM 31.7639 -104.3133 98° East 517 595 41,000  Level Albuquerque Center
02:39PM 31.7419 -104.1453 99° East 518 596 41,000  Level Albuquerque Center
02:40PM 31.7200 -103.9778 99° East 519 597 41,000  Level Albuquerque Center
02:41PM 31.6947 -103.7764 98° East 519 597 41,000  Level Albuquerque Center
02:42PM 31.6736 -103.6233 99° East 519 597 41,000  Level Albuquerque Center
02:43PM 31.6511 -103.4406 98° East 519 597 41,000  Level Albuquerque Center
02:44PM 31.6322 -103.3053 99° East 526 605 41,000  Level Fort Worth Center
02:45PM 31.6122 -103.1736 100° East 521 600 41,000  Level Houston Center
02:46PM 31.5906 -103.0058 99° East 521 600 41,000  Level Houston Center
02:47PM 31.5683 -102.8381 99° East 521 600 41,000  Level Houston Center
02:48PM 31.5458 -102.6708 99° East 521 600 41,000  Level Houston Center
02:49PM 31.5189 -102.4683 99° East 521 600 41,000  Level Houston Center
02:50PM 31.4994 -102.2994 98° East 524 603 41,000  Level Fort Worth Center
02:51PM 31.4753 -102.1269 99° East 539 620 41,000  Level Fort Worth Center
02:52PM 31.4447 -101.9242 100° East 524 603 41,000  Level Fort Worth Center
02:53PM 31.4194 -101.7578 100° East 521 600 41,000  Level Fort Worth Center
02:54PM 31.3947 -101.5908 100° East 520 598 41,000  Level Fort Worth Center
02:55PM 31.3706 -101.4250 100° East 520 598 41,000  Level Fort Worth Center
02:56PM 31.3469 -101.2592 99° East 520 598 41,000  Level Houston Center
02:57PM 31.3217 -101.0917 100° East 521 600 41,000  Level Houston Center
02:58PM 31.2964 -100.9181 100° East 521 600 41,000  Level Houston Center
02:59PM 31.2706 -100.7506 100° East 522 601 41,000  Level Houston Center
03:00PM 31.2447 -100.5825 100° East 523 602 41,000  Level Houston Center
03:01PM 31.2194 -100.4156 100° East 523 602 41,000  Level Houston Center
03:02PM 31.1925 -100.2478 101° East 523 602 41,000  Level Houston Center
03:03PM 31.1600 -100.0447 101° East 525 604 41,000  Level Houston Center
03:04PM 31.1342 -99.8786 100° East 522 601 41,000  Level Houston Center
03:05PM 31.1075 -99.7100 100° East 522 601 41,000  Level Houston Center
03:06PM 31.0800 -99.5417 101° East 524 603 41,000  Level Houston Center
03:07PM 31.0522 -99.3750 101° East 524 603 41,000  Level Houston Center
03:09PM 31.0253 -99.2094 101° East 523 602 41,000  Level Houston Center
03:10PM 30.9939 -99.0125 100° East 522 601 41,000  Level Houston Center
03:11PM 30.9653 -98.8478 101° East 522 601 41,000  Level Houston Center
03:12PM 30.9375 -98.6847 101° East 520 598 41,000  Level Houston Center
03:13PM 30.9094 -98.5208 101° East 519 597 41,000  Level Houston Center
03:14PM 30.8811 -98.3581 101° East 518 596 41,000  Level Houston Center
03:15PM 30.8533 -98.1942 101° East 518 596 41,000  Level Houston Center
03:16PM 30.8189 -97.9986 102° East 517 595 41,000  Level Houston Center
03:17PM 30.7897 -97.8367 102° East 517 595 41,000  Level Houston Center
03:18PM 30.7617 -97.6742 101° East 517 595 41,000  Level Houston Center
03:19PM 30.7317 -97.5133 102° East 516 594 41,000  Level Houston Center
03:20PM 30.6972 -97.3197 102° East 517 595 41,000  Level Houston Center
03:21PM 30.6686 -97.1583 102° East 518 596 41,000  Level Houston Center
03:22PM 30.6386 -96.9961 102° East 518 596 41,000  Level Houston Center
03:23PM 30.6081 -96.8336 102° East 519 597 41,000  Level Houston Center
03:24PM 30.5789 -96.6719 102° East 519 597 41,000  Level Houston Center
03:25PM 30.5439 -96.4767 102° East 519 597 41,000  Level Houston Center
03:26PM 30.5131 -96.3156 102° East 518 596 41,000  Level Houston Center
03:27PM 30.4825 -96.1567 103° East 511 588 41,000  Level Houston Center
03:28PM 30.4492 -95.9786 102° East 511 588 41,000  Level Houston Center
03:29PM 30.4186 -95.8194 103° East 510 587 41,000  Level Houston Center
03:30PM 30.3878 -95.6600 103° East 509 586 41,000  Level Houston Center
03:31PM 30.3561 -95.4989 103° East 509 586 41,000  Level Houston Center
03:32PM 30.3242 -95.3397 103° East 509 586 41,000  Level Houston Center
03:33PM 30.2928 -95.1789 103° East 509 586 41,000  Level Houston Center
03:34PM 30.2539 -94.9844 103° East 510 587 41,000  Level Houston Center
03:35PM 30.2214 -94.8231 103° East 512 589 41,000  Level Houston Center
03:36PM 30.1886 -94.6636 103° East 512 589 41,000  Level Houston Center
03:38PM 30.1564 -94.5022 103° East 512 589 41,000  Level Houston Center
03:39PM 30.1236 -94.3464 104° East 512 589 41,000  Level Houston Center
03:40PM 30.0836 -94.1547 104° East 513 590 41,000  Level Houston Center
03:41PM 30.0508 -93.9964 103° East 512 589 41,000  Level Houston Center
03:42PM 30.0178 -93.8386 104° East 512 589 41,000  Level Houston Center
03:43PM 29.9856 -93.6825 103° East 510 587 41,000  Level Houston Center
03:44PM 29.9519 -93.5269 104° East 507 583 41,000  Level Houston Center
03:45PM 29.9125 -93.3383 104° East 508 585 41,000  Level Houston Center
03:46PM 29.8781 -93.1817 104° East 508 585 41,000  Level Houston Center
03:47PM 29.8450 -93.0239 104° East 509 586 41,000  Level Houston Center
03:48PM 29.8100 -92.8664 104° East 509 586 41,000  Level Houston Center
03:49PM 29.7694 -92.6758 104° East 510 587 41,000  Level Houston Center
03:50PM 29.7331 -92.5194 105° East 511 588 41,000  Level Houston Center
03:51PM 29.6992 -92.3600 104° East 514 592 41,000  Level Houston Center
03:52PM 29.6639 -92.2017 104° East 514 592 41,000  Level Houston Center
03:53PM 29.6278 -92.0447 105° East 513 590 41,000  Level Houston Center
03:54PM 29.5922 -91.8858 104° East 513 590 41,000  Level Houston Center
03:55PM 29.5483 -91.6947 105° East 512 589 41,000  Level Houston Center
03:56PM 29.5122 -91.5381 105° East 510 587 41,000  Level Houston Center
03:57PM 29.4775 -91.3817 104° East 510 587 41,000  Level Houston Center
03:58PM 29.4403 -91.2250 105° East 510 587 41,000  Level Houston Center
03:59PM 29.4047 -91.0683 105° East 510 587 41,000  Level Houston Center
04:00PM 29.3606 -90.8836 105° East 508 585 41,000  Level Houston Center
04:01PM 29.3247 -90.7286 105° East 508 585 41,000  Level Houston Center
04:02PM 29.2869 -90.5719 105° East 508 585 41,000  Level Houston Center
04:03PM 29.2500 -90.4156 105° East 509 586 41,000  Level Houston Center
04:04PM 29.2122 -90.2614 106° East 508 585 41,000  Level Houston Center
04:05PM 29.1686 -90.0742 105° East 509 586 41,000  Level Houston Center
04:07PM 29.1369 -89.9192 103° East 509 586 41,000  Level Houston Center
04:08PM 29.1061 -89.7622 103° East 506 582 41,000  Level Houston Center
04:09PM 29.0733 -89.6058 103° East 506 582 41,000  Level Houston Center
04:10PM 29.0411 -89.4492 103° East 508 585 41,000  Level Houston Center
04:11PM 29.0028 -89.2636 103° East 506 582 41,000  Level Houston Center
04:12PM 28.9697 -89.1083 104° East 505 581 41,000  Level Houston Center
04:13PM 28.9375 -88.9536 103° East 505 581 41,000  Level Houston Center
04:14PM 28.9042 -88.8006 104° East 502 578 41,000  Level Houston Center
04:15PM 28.8706 -88.6475 104° East 500 575 41,000  Level Houston Center
04:16PM 28.8286 -88.4983 108° East 499 574 41,000  Level Houston Center
04:17PM 28.7914 -88.3153 103° East 498 573 41,000  Level Houston Center
04:18PM 28.7681 -88.1606 100° East 495 570 41,000  Level Houston Center
04:19PM 28.7428 -87.9969 100° East 497 572 41,000  Level Houston Center
04:20PM 28.7203 -87.8422 99° East 497 572 41,000  Level Houston Center
04:21PM 28.6967 -87.6869 100° East 497 572 41,000  Level Houston Center
04:22PM 28.6719 -87.5333 100° East 497 572 41,000  Level Houston Center
04:23PM 28.6478 -87.3792 100° East 497 572 41,000  Level Houston Center
04:24PM 28.6186 -87.1950 100° East 495 570 41,000  Level Houston Center
04:25PM 28.5961 -87.0492 100° East 495 570 41,000  Level Houston Center
04:26PM 28.5803 -86.9561 101° East 493 567 41,000 840 Level Jacksonville Center
04:27PM 28.5578 -86.8086 100° East 493 567 42,300 960 Climbing Jacksonville Center
04:28PM 28.5328 -86.6658 101° East 466 536 43,000 300 Climbing Jacksonville Center
04:29PM 28.5097 -86.5233 100° East 454 522 43,000  Level Jacksonville Center
04:30PM 28.4844 -86.3808 101° East 454 522 43,000  Level Jacksonville Center
04:31PM 28.4633 -86.2383 100° East 454 522 43,000  Level Jacksonville Center
04:32PM 28.4358 -86.0864 102° East 460 529 43,000 -600 Level Jacksonville Center
04:33PM 28.4103 -85.9369 101° East 471 542 41,800 -1,380 Descending Jacksonville Center
04:34PM 28.3864 -85.7875 100° East 484 557 40,300 -1,560 Descending Jacksonville Center
04:35PM 28.3606 -85.6406 101° East 484 557 38,700 -1,620 Descending Jacksonville Center
04:36PM 28.3364 -85.4936 101° East 479 551 37,100 -1,620 Descending Jacksonville Center
04:37PM 28.3122 -85.3492 101° East 464 534 35,500 -1,620 Descending Jacksonville Center
04:38PM 28.2875 -85.2119 102° East 458 527 33,900 -1,260 Descending Jacksonville Center
04:39PM 28.2631 -85.0678 101° East 458 527 33,000 -300 Descending Jacksonville Center
04:41PM 28.1897 -84.7214 103° East 481 554 33,000 -360 Level Miami Center
04:42PM 28.1339 -84.5506 110° East 483 556 31,800 -1,680 Descending Miami Center
04:43PM 28.1147 -84.4072 99° East 502 578 29,600 -2,340 Descending Miami Center
04:44PM 28.0892 -84.2453 100° East 518 596 27,100 -2,760 Descending Miami Center
04:45PM 28.0583 -84.0519 100° East 521 600 24,000 -2,700 Descending Miami Center
04:46PM 28.0333 -83.8975 100° East 504 580 21,600 -2,340 Descending Miami Center
04:47PM 28.0086 -83.7456 100° East 495 570 19,200 -2,280 Descending Miami Center
04:48PM 28.0219 -83.5964 84° East 478 550 16,900 -2,160 Descending Miami Center
04:49PM 27.9983 -83.4575 101° East 459 528 14,800 -2,100 Descending Miami Center
04:51PM 27.9628 -83.3261 107° East 441 507 12,600 -2,040 Descending Miami Center
04:52PM 27.9253 -83.2008 109° East 423 487 10,600 -1,500 Descending Miami Center
04:53PM 27.9186 -83.0533 93° East 391 450 9,600 -1,440 Descending Miami Center
04:54PM 27.9600 -82.9628 63° Northeast 324 373 7,700 -2,040 Descending Miami Center
04:55PM 28.0097 -82.8842 54° Northeast 314 361 5,500 -2,280 Descending Miami Center
04:55PM 28.0333 -82.8167 68° East 298 343 3,800 -1,980 Descending Tampa TRACON
04:56PM 28.0333 -82.7500 90° East 284 327 2,800 -1,200 Descending Tampa TRACON
04:57PM 27.9833 -82.7000 139° Southeast 184 212 1,700 -1,140 Descending Tampa TRACON
04:58PM 27.9500 -82.7000 180° South 154 177 600 -1,200 Descending Tampa TRACON